Terminal Aerodrome Forecast
Issued by NWS

Home | Current Version | Previous Version | Text Only | Print | Product List | Glossary On
Versions: 1 2 3 4 5 6 7 8 9 10 11 12 13 14 15 16 17 18 19 20 21 22 23 24 25 26 27 28 29
194
FTUS41 KBUF 241741
TAFIAG
TAF
KIAG 241741Z 2418/2518 34004KT 3SM -SN BKN012
     FM242100 29004KT P6SM OVC012
     FM251100 25007KT P6SM BKN130
     FM251500 23006KT P6SM BKN015=

USA.gov is the U.S. government's official web portal to all federal, state and local government web resources and services.